sensor_id;sensor_type;location;lat;lon;timestamp;pressure;altitude;pressure_sealevel;temperature;humidity
64076;BME280;50327;51.328;12.324;2023-03-04T00:00:56;53015.00;;;-144.47;96.24
64076;BME280;50327;51.328;12.324;2023-03-04T00:03:22;53026.91;;;-144.47;96.50
64076;BME280;50327;51.328;12.324;2023-03-04T00:05:47;53038.81;;;-144.47;96.83
64076;BME280;50327;51.328;12.324;2023-03-04T00:08:12;53024.91;;;-144.47;96.74
64076;BME280;50327;51.328;12.324;2023-03-04T00:10:38;53030.88;;;-144.47;97.28
64076;BME280;50327;51.328;12.324;2023-03-04T00:13:03;53026.91;;;-144.47;97.28
64076;BME280;50327;51.328;12.324;2023-03-04T00:15:29;53042.78;;;-144.47;97.76
64076;BME280;50327;51.328;12.324;2023-03-04T00:17:54;53034.84;;;-144.47;98.01
64076;BME280;50327;51.328;12.324;2023-03-04T00:20:20;53056.69;;;-144.47;98.32
64076;BME280;50327;51.328;12.324;2023-03-04T00:22:45;53028.88;;;-144.47;98.28
64076;BME280;50327;51.328;12.324;2023-03-04T00:25:11;53050.75;;;-144.47;98.63
64076;BME280;50327;51.328;12.324;2023-03-04T00:27:36;53040.81;;;-144.47;98.75
64076;BME280;50327;51.328;12.324;2023-03-04T00:30:02;53030.88;;;-144.47;98.99
64076;BME280;50327;51.328;12.324;2023-03-04T00:32:27;53032.88;;;-144.47;99.71
64076;BME280;50327;51.328;12.324;2023-03-04T00:34:52;53054.72;;;-144.47;100.00
64076;BME280;50327;51.328;12.324;2023-03-04T00:37:18;53040.81;;;-144.47;100.00
64076;BME280;50327;51.328;12.324;2023-03-04T00:39:43;53036.84;;;-144.47;100.00
64076;BME280;50327;51.328;12.324;2023-03-04T00:42:09;53036.84;;;-144.47;100.00
64076;BME280;50327;51.328;12.324;2023-03-04T00:44:34;53070.59;;;-144.47;100.00
64076;BME280;50327;51.328;12.324;2023-03-04T00:46:59;53056.69;;;-144.47;100.00
64076;BME280;50327;51.328;12.324;2023-03-04T00:49:25;53038.81;;;-144.47;100.00
64076;BME280;50327;51.328;12.324;2023-03-04T00:51:50;53106.34;;;-144.47;100.00
64076;BME280;50327;51.328;12.324;2023-03-04T00:54:16;53074.56;;;-144.47;100.00
64076;BME280;50327;51.328;12.324;2023-03-04T00:56:41;53056.69;;;-144.47;100.00
64076;BME280;50327;51.328;12.324;2023-03-04T00:59:06;53054.72;;;-144.47;100.00
64076;BME280;50327;51.328;12.324;2023-03-04T01:01:32;53066.63;;;-144.47;100.00
64076;BME280;50327;51.328;12.324;2023-03-04T01:03:57;53070.59;;;-144.47;100.00
64076;BME280;50327;51.328;12.324;2023-03-04T01:06:22;53088.47;;;-144.47;100.00
64076;BME280;50327;51.328;12.324;2023-03-04T01:08:48;53082.53;;;-144.47;100.00
64076;BME280;50327;51.328;12.324;2023-03-04T01:11:13;53068.63;;;-144.47;100.00
64076;BME280;50327;51.328;12.324;2023-03-04T01:13:38;53066.63;;;-144.47;100.00
64076;BME280;50327;51.328;12.324;2023-03-04T01:16:05;53060.66;;;-144.47;100.00
64076;BME280;50327;51.328;12.324;2023-03-04T01:18:30;53060.66;;;-144.47;100.00
64076;BME280;50327;51.328;12.324;2023-03-04T01:20:56;53052.72;;;-144.47;100.00
64076;BME280;50327;51.328;12.324;2023-03-04T01:23:22;53044.78;;;-144.47;100.00
64076;BME280;50327;51.328;12.324;2023-03-04T01:25:47;53070.59;;;-144.47;100.00
64076;BME280;50327;51.328;12.324;2023-03-04T01:28:13;53046.75;;;-144.47;100.00
64076;BME280;50327;51.328;12.324;2023-03-04T01:30:38;53042.78;;;-144.47;100.00
64076;BME280;50327;51.328;12.324;2023-03-04T01:33:04;53074.56;;;-144.47;100.00
64076;BME280;50327;51.328;12.324;2023-03-04T01:35:29;53056.69;;;-144.47;100.00
64076;BME280;50327;51.328;12.324;2023-03-04T01:37:55;53046.75;;;-144.47;100.00
64076;BME280;50327;51.328;12.324;2023-03-04T01:40:20;53022.94;;;-144.47;100.00
64076;BME280;50327;51.328;12.324;2023-03-04T01:42:45;53022.94;;;-144.47;100.00
64076;BME280;50327;51.328;12.324;2023-03-04T01:45:13;53052.72;;;-144.47;100.00
64076;BME280;50327;51.328;12.324;2023-03-04T01:47:40;53046.75;;;-144.47;99.90
64076;BME280;50327;51.328;12.324;2023-03-04T01:50:26;53038.81;;;-144.47;99.80
64076;BME280;50327;51.328;12.324;2023-03-04T01:52:52;53054.72;;;-144.47;99.75
64076;BME280;50327;51.328;12.324;2023-03-04T01:55:20;53066.63;;;-144.47;99.78
64076;BME280;50327;51.328;12.324;2023-03-04T01:57:47;53062.66;;;-144.47;99.97
64076;BME280;50327;51.328;12.324;2023-03-04T02:00:32;53064.66;;;-144.47;99.82
64076;BME280;50327;51.328;12.324;2023-03-04T02:03:02;53046.75;;;-144.47;99.97
64076;BME280;50327;51.328;12.324;2023-03-04T02:05:29;53050.75;;;-144.47;100.00
64076;BME280;50327;51.328;12.324;2023-03-04T02:07:56;53084.50;;;-144.47;100.00
64076;BME280;50327;51.328;12.324;2023-03-04T02:10:22;53034.84;;;-144.47;100.00
64076;BME280;50327;51.328;12.324;2023-03-04T02:12:48;53044.78;;;-144.47;99.99
64076;BME280;50327;51.328;12.324;2023-03-04T02:15:15;53070.59;;;-144.47;99.91
64076;BME280;50327;51.328;12.324;2023-03-04T02:17:40;53082.53;;;-144.47;99.82
64076;BME280;50327;51.328;12.324;2023-03-04T02:20:11;53050.75;;;-144.47;99.47
64076;BME280;50327;51.328;12.324;2023-03-04T02:22:46;53050.75;;;-144.47;99.35
64076;BME280;50327;51.328;12.324;2023-03-04T02:25:21;53064.66;;;-144.47;99.42
64076;BME280;50327;51.328;12.324;2023-03-04T02:27:48;53072.59;;;-144.47;99.40
64076;BME280;50327;51.328;12.324;2023-03-04T02:30:15;53032.88;;;-144.47;99.01
64076;BME280;50327;51.328;12.324;2023-03-04T02:32:40;53062.66;;;-144.47;98.58
64076;BME280;50327;51.328;12.324;2023-03-04T02:35:13;53056.69;;;-144.47;98.72
64076;BME280;50327;51.328;12.324;2023-03-04T02:37:40;53054.72;;;-144.47;98.36
64076;BME280;50327;51.328;12.324;2023-03-04T02:40:11;53046.75;;;-144.47;98.09
64076;BME280;50327;51.328;12.324;2023-03-04T02:42:38;53044.78;;;-144.47;98.01
64076;BME280;50327;51.328;12.324;2023-03-04T02:45:04;53030.88;;;-144.47;97.68
64076;BME280;50327;51.328;12.324;2023-03-04T02:47:29;53016.97;;;-144.47;97.19
64076;BME280;50327;51.328;12.324;2023-03-04T02:49:55;53026.91;;;-144.47;96.92
64076;BME280;50327;51.328;12.324;2023-03-04T02:52:22;53086.50;;;-144.47;96.69
64076;BME280;50327;51.328;12.324;2023-03-04T02:54:47;53036.84;;;-144.47;96.26
64076;BME280;50327;51.328;12.324;2023-03-04T02:57:13;53036.84;;;-144.47;95.84
64076;BME280;50327;51.328;12.324;2023-03-04T02:59:40;53024.91;;;-144.47;95.82
64076;BME280;50327;51.328;12.324;2023-03-04T03:02:07;53024.91;;;-144.47;95.64
64076;BME280;50327;51.328;12.324;2023-03-04T03:04:33;53034.84;;;-144.47;95.57
64076;BME280;50327;51.328;12.324;2023-03-04T03:07:00;53044.78;;;-144.47;95.01
64076;BME280;50327;51.328;12.324;2023-03-04T03:09:26;53042.78;;;-144.47;94.85
64076;BME280;50327;51.328;12.324;2023-03-04T03:11:51;53022.94;;;-144.47;94.75
64076;BME280;50327;51.328;12.324;2023-03-04T03:14:16;53046.75;;;-144.47;94.56
64076;BME280;50327;51.328;12.324;2023-03-04T03:16:42;53064.66;;;-144.47;94.58
64076;BME280;50327;51.328;12.324;2023-03-04T03:19:07;53040.81;;;-144.47;94.81
64076;BME280;50327;51.328;12.324;2023-03-04T03:21:32;53034.84;;;-144.47;95.05
64076;BME280;50327;51.328;12.324;2023-03-04T03:23:58;53015.00;;;-144.47;94.72
64076;BME280;50327;51.328;12.324;2023-03-04T03:26:23;53052.72;;;-144.47;94.60
64076;BME280;50327;51.328;12.324;2023-03-04T03:28:48;53005.06;;;-144.47;94.38
64076;BME280;50327;51.328;12.324;2023-03-04T03:31:14;53056.69;;;-144.47;94.30
64076;BME280;50327;51.328;12.324;2023-03-04T03:33:39;53058.69;;;-144.47;94.40
64076;BME280;50327;51.328;12.324;2023-03-04T03:36:06;52995.13;;;-144.47;94.28
64076;BME280;50327;51.328;12.324;2023-03-04T03:38:31;53007.03;;;-144.47;94.18
64076;BME280;50327;51.328;12.324;2023-03-04T03:40:57;53018.97;;;-144.47;93.68
64076;BME280;50327;51.328;12.324;2023-03-04T03:43:22;53026.91;;;-144.47;93.67
64076;BME280;50327;51.328;12.324;2023-03-04T03:45:48;53009.03;;;-144.47;93.46
64076;BME280;50327;51.328;12.324;2023-03-04T03:48:13;53036.84;;;-144.47;93.64
64076;BME280;50327;51.328;12.324;2023-03-04T03:50:39;53011.00;;;-144.47;93.48
64076;BME280;50327;51.328;12.324;2023-03-04T03:53:04;53034.84;;;-144.47;93.61
64076;BME280;50327;51.328;12.324;2023-03-04T03:55:29;52999.09;;;-144.47;93.56
64076;BME280;50327;51.328;12.324;2023-03-04T03:57:55;53022.94;;;-144.47;93.41
64076;BME280;50327;51.328;12.324;2023-03-04T04:00:21;53015.00;;;-144.47;93.30
64076;BME280;50327;51.328;12.324;2023-03-04T04:02:46;53054.72;;;-144.47;93.28
64076;BME280;50327;51.328;12.324;2023-03-04T04:05:12;53011.00;;;-144.47;93.28
64076;BME280;50327;51.328;12.324;2023-03-04T04:07:38;53022.94;;;-144.47;93.33
64076;BME280;50327;51.328;12.324;2023-03-04T04:10:04;53011.00;;;-144.47;93.10
64076;BME280;50327;51.328;12.324;2023-03-04T04:12:30;53003.06;;;-144.47;93.09
64076;BME280;50327;51.328;12.324;2023-03-04T04:14:55;53018.97;;;-144.47;93.54
64076;BME280;50327;51.328;12.324;2023-03-04T04:17:21;53044.78;;;-144.47;93.47
64076;BME280;50327;51.328;12.324;2023-03-04T04:19:46;53032.88;;;-144.47;93.27
64076;BME280;50327;51.328;12.324;2023-03-04T04:22:17;53018.97;;;-144.47;93.41
64076;BME280;50327;51.328;12.324;2023-03-04T04:24:43;53032.88;;;-144.47;93.20
64076;BME280;50327;51.328;12.324;2023-03-04T04:27:08;53044.78;;;-144.47;93.29
64076;BME280;50327;51.328;12.324;2023-03-04T04:29:38;53032.88;;;-144.47;93.18
64076;BME280;50327;51.328;12.324;2023-03-04T04:32:04;53028.88;;;-144.47;93.01
64076;BME280;50327;51.328;12.324;2023-03-04T04:34:29;53022.94;;;-144.47;93.07
64076;BME280;50327;51.328;12.324;2023-03-04T04:36:54;53024.91;;;-144.47;93.01
64076;BME280;50327;51.328;12.324;2023-03-04T04:39:20;53044.78;;;-144.47;92.94
64076;BME280;50327;51.328;12.324;2023-03-04T04:41:46;53042.78;;;-144.47;92.84
64076;BME280;50327;51.328;12.324;2023-03-04T04:44:12;53020.94;;;-144.47;92.69
64076;BME280;50327;51.328;12.324;2023-03-04T04:46:38;53024.91;;;-144.47;92.79
64076;BME280;50327;51.328;12.324;2023-03-04T04:49:05;53032.88;;;-144.47;92.74
64076;BME280;50327;51.328;12.324;2023-03-04T04:51:30;52983.22;;;-144.47;92.78
64076;BME280;50327;51.328;12.324;2023-03-04T04:53:58;52999.09;;;-144.47;92.99
64076;BME280;50327;51.328;12.324;2023-03-04T04:56:24;53034.84;;;-144.47;92.80
64076;BME280;50327;51.328;12.324;2023-03-04T04:58:52;53034.84;;;-144.47;92.50
64076;BME280;50327;51.328;12.324;2023-03-04T05:01:18;53038.81;;;-144.47;92.46
64076;BME280;50327;51.328;12.324;2023-03-04T05:03:43;53034.84;;;-144.47;92.35
64076;BME280;50327;51.328;12.324;2023-03-04T05:06:10;53015.00;;;-144.47;92.21
64076;BME280;50327;51.328;12.324;2023-03-04T05:08:36;53044.78;;;-144.47;92.19
64076;BME280;50327;51.328;12.324;2023-03-04T05:11:03;53046.75;;;-144.47;92.12
64076;BME280;50327;51.328;12.324;2023-03-04T05:13:28;53030.88;;;-144.47;92.09
64076;BME280;50327;51.328;12.324;2023-03-04T05:15:55;53024.91;;;-144.47;91.77
64076;BME280;50327;51.328;12.324;2023-03-04T05:18:23;53011.00;;;-144.47;91.86
64076;BME280;50327;51.328;12.324;2023-03-04T05:20:53;53042.78;;;-144.47;91.88
64076;BME280;50327;51.328;12.324;2023-03-04T05:23:20;53050.75;;;-144.47;91.96
64076;BME280;50327;51.328;12.324;2023-03-04T05:25:45;53018.97;;;-144.47;91.65
64076;BME280;50327;51.328;12.324;2023-03-04T05:28:11;53016.97;;;-144.47;91.54
64076;BME280;50327;51.328;12.324;2023-03-04T05:30:41;52997.09;;;-144.47;91.51
64076;BME280;50327;51.328;12.324;2023-03-04T05:33:07;53030.88;;;-144.47;91.62
64076;BME280;50327;51.328;12.324;2023-03-04T05:35:34;53015.00;;;-144.47;91.95
64076;BME280;50327;51.328;12.324;2023-03-04T05:38:00;53030.88;;;-144.47;91.82
64076;BME280;50327;51.328;12.324;2023-03-04T05:40:25;53003.06;;;-144.47;91.62
64076;BME280;50327;51.328;12.324;2023-03-04T05:42:50;53016.97;;;-144.47;92.12
64076;BME280;50327;51.328;12.324;2023-03-04T05:45:16;53003.06;;;-144.47;91.87
64076;BME280;50327;51.328;12.324;2023-03-04T05:47:41;53034.84;;;-144.47;92.05
64076;BME280;50327;51.328;12.324;2023-03-04T05:50:07;53015.00;;;-144.47;92.34
64076;BME280;50327;51.328;12.324;2023-03-04T05:52:32;53013.00;;;-144.47;92.56
64076;BME280;50327;51.328;12.324;2023-03-04T05:54:58;53030.88;;;-144.47;92.48
64076;BME280;50327;51.328;12.324;2023-03-04T05:57:23;53038.81;;;-144.47;92.12
64076;BME280;50327;51.328;12.324;2023-03-04T05:59:48;53018.97;;;-144.47;92.06
64076;BME280;50327;51.328;12.324;2023-03-04T06:02:14;53050.75;;;-144.47;92.11
64076;BME280;50327;51.328;12.324;2023-03-04T06:04:39;53018.97;;;-144.47;92.24
64076;BME280;50327;51.328;12.324;2023-03-04T06:07:04;53034.84;;;-144.47;92.08
64076;BME280;50327;51.328;12.324;2023-03-04T06:09:30;53013.00;;;-144.47;92.04
64076;BME280;50327;51.328;12.324;2023-03-04T06:11:55;53018.97;;;-144.47;92.27
64076;BME280;50327;51.328;12.324;2023-03-04T06:14:20;52999.09;;;-144.47;92.19
64076;BME280;50327;51.328;12.324;2023-03-04T06:16:46;53038.81;;;-144.47;92.29
64076;BME280;50327;51.328;12.324;2023-03-04T06:19:11;53022.94;;;-144.47;92.53
64076;BME280;50327;51.328;12.324;2023-03-04T06:21:37;53015.00;;;-144.47;92.51
64076;BME280;50327;51.328;12.324;2023-03-04T06:24:02;53020.94;;;-144.47;92.37
64076;BME280;50327;51.328;12.324;2023-03-04T06:26:27;53016.97;;;-144.47;92.38
64076;BME280;50327;51.328;12.324;2023-03-04T06:28:53;53007.03;;;-144.47;92.35
64076;BME280;50327;51.328;12.324;2023-03-04T06:31:21;53009.03;;;-144.47;92.23
64076;BME280;50327;51.328;12.324;2023-03-04T06:33:46;53018.97;;;-144.47;92.17
64076;BME280;50327;51.328;12.324;2023-03-04T06:36:12;53011.00;;;-144.47;91.93
64076;BME280;50327;51.328;12.324;2023-03-04T06:38:37;53036.84;;;-144.47;92.00
64076;BME280;50327;51.328;12.324;2023-03-04T06:41:07;53026.91;;;-144.47;92.33
64076;BME280;50327;51.328;12.324;2023-03-04T06:43:33;53013.00;;;-144.47;92.02
64076;BME280;50327;51.328;12.324;2023-03-04T06:45:58;53032.88;;;-144.47;91.80
64076;BME280;50327;51.328;12.324;2023-03-04T06:48:23;53024.91;;;-144.47;91.39
64076;BME280;50327;51.328;12.324;2023-03-04T06:50:49;53018.97;;;-144.47;91.35
64076;BME280;50327;51.328;12.324;2023-03-04T06:53:14;53020.94;;;-144.47;91.62
64076;BME280;50327;51.328;12.324;2023-03-04T06:55:39;53030.88;;;-144.47;91.53
64076;BME280;50327;51.328;12.324;2023-03-04T06:58:05;53011.00;;;-144.47;91.37
64076;BME280;50327;51.328;12.324;2023-03-04T07:00:30;53018.97;;;-144.47;91.38
64076;BME280;50327;51.328;12.324;2023-03-04T07:02:57;53007.03;;;-144.47;91.08
64076;BME280;50327;51.328;12.324;2023-03-04T07:05:22;52979.22;;;-144.47;91.20
64076;BME280;50327;51.328;12.324;2023-03-04T07:07:48;53040.81;;;-144.47;91.44
64076;BME280;50327;51.328;12.324;2023-03-04T07:10:13;52993.13;;;-144.47;91.07
64076;BME280;50327;51.328;12.324;2023-03-04T07:12:39;53038.81;;;-144.47;91.43
64076;BME280;50327;51.328;12.324;2023-03-04T07:15:05;53005.06;;;-144.47;91.69
64076;BME280;50327;51.328;12.324;2023-03-04T07:17:30;53011.00;;;-144.47;91.48
64076;BME280;50327;51.328;12.324;2023-03-04T07:19:56;53022.94;;;-144.47;91.23
64076;BME280;50327;51.328;12.324;2023-03-04T07:22:21;53018.97;;;-144.47;91.39
64076;BME280;50327;51.328;12.324;2023-03-04T07:24:46;53003.06;;;-144.47;91.24
64076;BME280;50327;51.328;12.324;2023-03-04T07:27:12;53015.00;;;-144.47;91.34
64076;BME280;50327;51.328;12.324;2023-03-04T07:29:37;52999.09;;;-144.47;91.52
64076;BME280;50327;51.328;12.324;2023-03-04T07:32:06;53015.00;;;-144.47;91.86
64076;BME280;50327;51.328;12.324;2023-03-04T07:34:32;52995.13;;;-144.47;91.50
64076;BME280;50327;51.328;12.324;2023-03-04T07:36:58;53026.91;;;-144.47;91.27
64076;BME280;50327;51.328;12.324;2023-03-04T07:39:23;52991.16;;;-144.47;91.22
64076;BME280;50327;51.328;12.324;2023-03-04T07:41:49;52999.09;;;-144.47;91.06
64076;BME280;50327;51.328;12.324;2023-03-04T07:44:14;52983.22;;;-144.47;91.17
64076;BME280;50327;51.328;12.324;2023-03-04T07:46:39;52995.13;;;-144.47;90.50
64076;BME280;50327;51.328;12.324;2023-03-04T07:49:05;53016.97;;;-144.47;90.30
64076;BME280;50327;51.328;12.324;2023-03-04T07:51:30;52971.28;;;-144.47;90.17
64076;BME280;50327;51.328;12.324;2023-03-04T07:53:58;53007.03;;;-144.47;88.80
64076;BME280;50327;51.328;12.324;2023-03-04T07:56:26;53003.06;;;-144.47;88.79
64076;BME280;50327;51.328;12.324;2023-03-04T07:58:52;53005.06;;;-144.47;88.54
64076;BME280;50327;51.328;12.324;2023-03-04T08:01:20;52989.16;;;-144.47;89.11
64076;BME280;50327;51.328;12.324;2023-03-04T08:03:46;53020.94;;;-144.47;89.53
64076;BME280;50327;51.328;12.324;2023-03-04T08:06:14;52987.19;;;-144.47;89.01
64076;BME280;50327;51.328;12.324;2023-03-04T08:08:40;52971.28;;;-144.47;88.82
64076;BME280;50327;51.328;12.324;2023-03-04T08:11:12;52987.19;;;-144.47;88.81
64076;BME280;50327;51.328;12.324;2023-03-04T08:13:38;53009.03;;;-144.47;88.92
64076;BME280;50327;51.328;12.324;2023-03-04T08:16:03;52985.19;;;-144.47;89.16
64076;BME280;50327;51.328;12.324;2023-03-04T08:18:30;52971.28;;;-144.47;89.37
64076;BME280;50327;51.328;12.324;2023-03-04T08:20:56;52981.22;;;-144.47;90.00
64076;BME280;50327;51.328;12.324;2023-03-04T08:23:21;53016.97;;;-144.47;89.93
64076;BME280;50327;51.328;12.324;2023-03-04T08:25:47;52979.22;;;-144.47;89.71
64076;BME280;50327;51.328;12.324;2023-03-04T08:28:13;52975.25;;;-144.47;89.80
64076;BME280;50327;51.328;12.324;2023-03-04T08:30:39;52993.13;;;-144.47;89.83
64076;BME280;50327;51.328;12.324;2023-03-04T08:33:05;52995.13;;;-144.47;88.86
64076;BME280;50327;51.328;12.324;2023-03-04T08:35:31;52983.22;;;-144.47;87.89
64076;BME280;50327;51.328;12.324;2023-03-04T08:37:56;52969.31;;;-144.47;87.29
64076;BME280;50327;51.328;12.324;2023-03-04T08:40:22;52959.38;;;-144.47;87.27
64076;BME280;50327;51.328;12.324;2023-03-04T08:42:49;52979.22;;;-144.47;87.20
64076;BME280;50327;51.328;12.324;2023-03-04T08:45:14;52969.31;;;-144.47;86.72
64076;BME280;50327;51.328;12.324;2023-03-04T08:47:40;52967.31;;;-144.47;86.98
64076;BME280;50327;51.328;12.324;2023-03-04T08:50:06;52981.22;;;-144.47;86.37
64076;BME280;50327;51.328;12.324;2023-03-04T08:52:32;52997.09;;;-144.47;86.08
64076;BME280;50327;51.328;12.324;2023-03-04T08:54:57;52999.09;;;-144.47;85.99
64076;BME280;50327;51.328;12.324;2023-03-04T08:57:22;52963.34;;;-144.47;85.85
64076;BME280;50327;51.328;12.324;2023-03-04T08:59:48;52959.38;;;-144.47;86.20
64076;BME280;50327;51.328;12.324;2023-03-04T09:02:16;52949.44;;;-144.47;86.02
64076;BME280;50327;51.328;12.324;2023-03-04T09:04:41;52977.25;;;-144.47;85.67
64076;BME280;50327;51.328;12.324;2023-03-04T09:07:07;52959.38;;;-144.47;85.84
64076;BME280;50327;51.328;12.324;2023-03-04T09:09:33;52955.41;;;-144.47;85.53
64076;BME280;50327;51.328;12.324;2023-03-04T09:11:59;52953.41;;;-144.47;85.72
64076;BME280;50327;51.328;12.324;2023-03-04T09:14:24;52947.47;;;-144.47;86.29
64076;BME280;50327;51.328;12.324;2023-03-04T09:16:50;52955.41;;;-144.47;86.82
64076;BME280;50327;51.328;12.324;2023-03-04T09:19:18;52969.31;;;-144.47;86.57
64076;BME280;50327;51.328;12.324;2023-03-04T09:21:44;52981.22;;;-144.47;85.96
64076;BME280;50327;51.328;12.324;2023-03-04T09:24:09;52951.44;;;-144.47;86.07
64076;BME280;50327;51.328;12.324;2023-03-04T09:26:34;52967.31;;;-144.47;85.76
64076;BME280;50327;51.328;12.324;2023-03-04T09:29:01;52979.22;;;-144.47;86.32
64076;BME280;50327;51.328;12.324;2023-03-04T09:31:27;52939.50;;;-144.47;86.51
64076;BME280;50327;51.328;12.324;2023-03-04T09:33:55;52965.34;;;-144.47;86.13
64076;BME280;50327;51.328;12.324;2023-03-04T09:36:21;52961.34;;;-144.47;86.27
64076;BME280;50327;51.328;12.324;2023-03-04T09:38:46;52963.34;;;-144.47;85.63
64076;BME280;50327;51.328;12.324;2023-03-04T09:41:17;52971.28;;;-144.47;85.37
64076;BME280;50327;51.328;12.324;2023-03-04T09:43:44;52967.31;;;-144.47;85.65
64076;BME280;50327;51.328;12.324;2023-03-04T09:46:15;52967.31;;;-144.47;85.36
64076;BME280;50327;51.328;12.324;2023-03-04T09:48:50;52959.38;;;-144.47;84.96
64076;BME280;50327;51.328;12.324;2023-03-04T09:54:26;52971.28;;;-144.47;84.60
64076;BME280;50327;51.328;12.324;2023-03-04T09:56:59;52957.38;;;-144.47;84.43
64076;BME280;50327;51.328;12.324;2023-03-04T09:59:49;52913.69;;;-144.47;84.21
64076;BME280;50327;51.328;12.324;2023-03-04T10:02:46;52977.25;;;-144.47;83.45
64076;BME280;50327;51.328;12.324;2023-03-04T10:05:23;52967.31;;;-144.47;83.39
64076;BME280;50327;51.328;12.324;2023-03-04T10:07:57;52955.41;;;-144.47;83.26
64076;BME280;50327;51.328;12.324;2023-03-04T10:10:28;52975.25;;;-144.47;83.17
64076;BME280;50327;51.328;12.324;2023-03-04T10:12:56;52949.44;;;-144.47;83.05
64076;BME280;50327;51.328;12.324;2023-03-04T10:18:01;52957.38;;;-144.47;83.00
64076;BME280;50327;51.328;12.324;2023-03-04T10:20:43;52915.69;;;-144.47;83.02
64076;BME280;50327;51.328;12.324;2023-03-04T10:23:17;52969.31;;;-144.47;83.63
64076;BME280;50327;51.328;12.324;2023-03-04T10:25:44;52969.31;;;-144.47;84.11
64076;BME280;50327;51.328;12.324;2023-03-04T10:28:20;52965.34;;;-144.47;83.54
64076;BME280;50327;51.328;12.324;2023-03-04T10:33:33;52943.47;;;-144.47;83.29
64076;BME280;50327;51.328;12.324;2023-03-04T10:38:57;52941.50;;;-144.47;83.49
64076;BME280;50327;51.328;12.324;2023-03-04T10:41:26;52937.53;;;-144.47;83.77
64076;BME280;50327;51.328;12.324;2023-03-04T10:46:26;52935.53;;;-144.47;84.03
64076;BME280;50327;51.328;12.324;2023-03-04T10:48:53;52927.59;;;-144.47;84.69
64076;BME280;50327;51.328;12.324;2023-03-04T10:51:21;52967.31;;;-144.47;84.61
64076;BME280;50327;51.328;12.324;2023-03-04T10:53:55;52929.59;;;-144.47;85.01
64076;BME280;50327;51.328;12.324;2023-03-04T11:01:57;52955.41;;;-144.47;84.08
64076;BME280;50327;51.328;12.324;2023-03-04T11:04:23;52951.44;;;-144.47;84.27
64076;BME280;50327;51.328;12.324;2023-03-04T11:06:52;52943.47;;;-144.47;84.62
64076;BME280;50327;51.328;12.324;2023-03-04T11:09:29;52947.47;;;-144.47;84.41
64076;BME280;50327;51.328;12.324;2023-03-04T11:11:59;52951.44;;;-144.47;83.88
64076;BME280;50327;51.328;12.324;2023-03-04T11:14:37;52961.34;;;-144.47;83.66
64076;BME280;50327;51.328;12.324;2023-03-04T11:17:43;52959.38;;;-144.47;83.86
64076;BME280;50327;51.328;12.324;2023-03-04T11:22:51;52939.50;;;-144.47;83.77
64076;BME280;50327;51.328;12.324;2023-03-04T11:25:26;52951.44;;;-144.47;83.35
64076;BME280;50327;51.328;12.324;2023-03-04T11:27:54;52943.47;;;-144.47;83.72
64076;BME280;50327;51.328;12.324;2023-03-04T11:33:01;52945.47;;;-144.47;82.70
64076;BME280;50327;51.328;12.324;2023-03-04T11:38:30;52943.47;;;-144.47;81.08
64076;BME280;50327;51.328;12.324;2023-03-04T11:41:00;52929.59;;;-144.47;81.39
64076;BME280;50327;51.328;12.324;2023-03-04T11:43:39;52913.69;;;-144.47;80.90
64076;BME280;50327;51.328;12.324;2023-03-04T11:48:56;52931.56;;;-144.47;81.52
64076;BME280;50327;51.328;12.324;2023-03-04T11:51:56;52927.59;;;-144.47;81.76
64076;BME280;50327;51.328;12.324;2023-03-04T11:54:34;52933.56;;;-144.47;80.68
64076;BME280;50327;51.328;12.324;2023-03-04T11:57:11;52947.47;;;-144.47;80.66
64076;BME280;50327;51.328;12.324;2023-03-04T12:02:21;52927.59;;;-144.47;80.38
64076;BME280;50327;51.328;12.324;2023-03-04T12:05:12;52919.66;;;-144.47;80.01
64076;BME280;50327;51.328;12.324;2023-03-04T12:16:00;52917.66;;;-144.47;78.61
64076;BME280;50327;51.328;12.324;2023-03-04T12:21:18;52935.53;;;-144.47;78.19
64076;BME280;50327;51.328;12.324;2023-03-04T12:26:35;52919.66;;;-144.47;77.41
64076;BME280;50327;51.328;12.324;2023-03-04T12:48:30;52943.47;;;-144.47;79.33
64076;BME280;50327;51.328;12.324;2023-03-04T12:56:01;52919.66;;;-144.47;76.98
64076;BME280;50327;51.328;12.324;2023-03-04T12:58:30;52923.63;;;-144.47;75.13
64076;BME280;50327;51.328;12.324;2023-03-04T13:01:33;52875.94;;;-144.47;74.54
64076;BME280;50327;51.328;12.324;2023-03-04T13:09:16;52931.56;;;-144.47;82.80
64076;BME280;50327;51.328;12.324;2023-03-04T13:11:53;52917.66;;;-144.47;87.15
64076;BME280;50327;51.328;12.324;2023-03-04T13:16:51;52923.63;;;-144.47;89.33
64076;BME280;50327;51.328;12.324;2023-03-04T13:24:55;52923.63;;;-144.47;82.42
64076;BME280;50327;51.328;12.324;2023-03-04T13:32:56;52911.69;;;-144.47;80.35
64076;BME280;50327;51.328;12.324;2023-03-04T13:43:43;52909.72;;;-144.47;79.91
64076;BME280;50327;51.328;12.324;2023-03-04T13:51:37;52931.56;;;-144.47;78.33
64076;BME280;50327;51.328;12.324;2023-03-04T13:56:46;52903.75;;;-144.47;79.39
64076;BME280;50327;51.328;12.324;2023-03-04T14:04:56;52913.69;;;-144.47;80.94
64076;BME280;50327;51.328;12.324;2023-03-04T14:07:30;52943.47;;;-144.47;81.08
64076;BME280;50327;51.328;12.324;2023-03-04T14:12:44;52943.47;;;-144.47;79.37
64076;BME280;50327;51.328;12.324;2023-03-04T14:17:37;52943.47;;;-144.47;76.08
64076;BME280;50327;51.328;12.324;2023-03-04T14:20:20;52921.63;;;-144.47;74.46
64076;BME280;50327;51.328;12.324;2023-03-04T14:22:46;52915.69;;;-144.47;73.47
64076;BME280;50327;51.328;12.324;2023-03-04T14:27:43;52927.59;;;-144.47;70.69
64076;BME280;50327;51.328;12.324;2023-03-04T14:30:29;52947.47;;;-144.47;69.77